Time;durP1;ratioP1;P1;durP2;ratioP2;P2;SDS_P1;SDS_P2;PMS_P1;PMS_P2;Temp;Humidity;BMP_temperature;BMP_pressure;BME280_temperature;BME280_humidity;BME280_pressure;Samples;Min_cycle;Max_cycle;Signal;HPM_P1;HPM_P2
2021/08/17 00:01:11;;;;;;;21.27;10.68;;;;;;;;;;5026593;28;20181;-64
2021/08/17 00:03:38;;;;;;;25.33;10.07;;;;;;;;;;5028735;28;20620;-64
2021/08/17 00:06:06;;;;;;;24.27;10.70;;;;;;;;;;5024252;28;20509;-64
2021/08/17 00:08:32;;;;;;;;;;;;;;;;;;5028204;28;20848;-64
2021/08/17 00:10:59;;;;;;;25.05;10.43;;;;;;;;;;5028102;28;19921;-64
2021/08/17 00:13:26;;;;;;;18.00;10.20;;;;;;;;;;5026703;28;20080;-64
2021/08/17 00:15:52;;;;;;;22.90;11.18;;;;;;;;;;5028014;28;20084;-65
2021/08/17 00:18:19;;;;;;;18.55;10.32;;;;;;;;;;5029486;28;20053;-64
2021/08/17 00:20:46;;;;;;;26.08;10.73;;;;;;;;;;5026713;28;20159;-64
2021/08/17 00:23:13;;;;;;;27.15;10.70;;;;;;;;;;5028068;28;20108;-64
2021/08/17 00:25:42;;;;;;;20.73;10.35;;;;;;;;;;5029054;28;20092;-64
2021/08/17 00:28:10;;;;;;;20.90;10.50;;;;;;;;;;5026214;28;20080;-64
2021/08/17 00:30:38;;;;;;;19.52;10.30;;;;;;;;;;5024811;28;20774;-64
2021/08/17 00:33:04;;;;;;;25.83;10.30;;;;;;;;;;5022682;28;20081;-64
2021/08/17 00:35:31;;;;;;;23.02;10.65;;;;;;;;;;5024688;28;20092;-64
2021/08/17 00:38:00;;;;;;;27.58;11.30;;;;;;;;;;5022784;28;20069;-64
2021/08/17 00:40:26;;;;;;;23.88;10.82;;;;;;;;;;5030749;28;20133;-64
2021/08/17 00:42:52;;;;;;;29.90;11.85;;;;;;;;;;5026524;28;20508;-64
2021/08/17 00:45:20;;;;;;;30.53;12.80;;;;;;;;;;5028452;28;20144;-64
2021/08/17 00:47:48;;;;;;;19.40;10.57;;;;;;;;;;5026313;28;20128;-64
2021/08/17 00:50:15;;;;;;;22.75;11.35;;;;;;;;;;5025419;28;20044;-64
2021/08/17 00:52:42;;;;;;;23.80;11.55;;;;;;;;;;5024550;28;20482;-64
2021/08/17 00:55:09;;;;;;;34.25;13.10;;;;;;;;;;5026977;28;20089;-64
2021/08/17 00:57:43;;;;;;;37.42;13.18;;;;;;;;;;5023133;28;20124;-64
2021/08/17 01:00:10;;;;;;;39.83;13.18;;;;;;;;;;5025846;28;20087;-64
2021/08/17 01:02:37;;;;;;;45.23;12.93;;;;;;;;;;5027478;28;20625;-65
2021/08/17 01:05:04;;;;;;;23.80;11.73;;;;;;;;;;5025183;28;20788;-64
2021/08/17 01:07:31;;;;;;;;;;;;;;;;;;5025687;28;20076;-64
2021/08/17 01:09:58;;;;;;;41.70;12.85;;;;;;;;;;5024830;28;19957;-64
2021/08/17 01:12:24;;;;;;;19.40;10.88;;;;;;;;;;5024531;28;20472;-64
2021/08/17 01:14:51;;;;;;;26.05;12.25;;;;;;;;;;5027276;28;20120;-64
2021/08/17 01:17:18;;;;;;;34.67;13.02;;;;;;;;;;5022931;28;20058;-64
2021/08/17 01:19:45;;;;;;;25.25;11.55;;;;;;;;;;5024986;28;20593;-64
2021/08/17 01:22:12;;;;;;;25.77;11.10;;;;;;;;;;5025981;28;20149;-64
2021/08/17 01:24:39;;;;;;;32.67;12.27;;;;;;;;;;5025072;28;20052;-64
2021/08/17 01:27:08;;;;;;;25.83;12.20;;;;;;;;;;5028096;28;20179;-64
2021/08/17 01:29:35;;;;;;;29.65;13.05;;;;;;;;;;5027916;28;20145;-63
2021/08/17 01:32:02;;;;;;;29.35;12.52;;;;;;;;;;5031402;28;20045;-64
2021/08/17 01:34:28;;;;;;;25.50;11.45;;;;;;;;;;5028515;28;20069;-63
2021/08/17 01:36:55;;;;;;;34.83;12.43;;;;;;;;;;5022232;28;20497;-63
2021/08/17 01:39:21;;;;;;;28.13;12.70;;;;;;;;;;5031054;28;20121;-63
2021/08/17 01:41:48;;;;;;;31.42;12.73;;;;;;;;;;5026227;28;20089;-63
2021/08/17 01:44:15;;;;;;;38.67;12.85;;;;;;;;;;5027222;28;20136;-63
2021/08/17 01:46:45;;;;;;;30.43;13.10;;;;;;;;;;5026076;28;20095;-63
2021/08/17 01:49:13;;;;;;;36.17;13.00;;;;;;;;;;5024164;28;20301;-63
2021/08/17 01:51:39;;;;;;;37.05;13.10;;;;;;;;;;5029403;28;20132;-64
2021/08/17 01:54:07;;;;;;;28.35;12.40;;;;;;;;;;5024749;28;20125;-63
2021/08/17 01:56:33;;;;;;;23.42;11.85;;;;;;;;;;5025643;28;20576;-64
2021/08/17 01:59:01;;;;;;;23.02;11.45;;;;;;;;;;5027760;28;20167;-63
2021/08/17 02:01:27;;;;;;;25.50;12.52;;;;;;;;;;5025864;28;20133;-63
2021/08/17 02:03:54;;;;;;;19.70;11.20;;;;;;;;;;5027691;28;20109;-63
2021/08/17 02:06:21;;;;;;;24.43;11.13;;;;;;;;;;5026881;28;20103;-64
2021/08/17 02:08:48;;;;;;;16.88;8.63;;;;;;;;;;5026596;28;20367;-63
2021/08/17 02:11:14;;;;;;;22.77;10.45;;;;;;;;;;5027962;28;20054;-63
2021/08/17 02:13:41;;;;;;;20.85;9.65;;;;;;;;;;5022610;28;20046;-64
2021/08/17 02:16:07;;;;;;;16.67;7.95;;;;;;;;;;5026639;28;20476;-64
2021/08/17 02:18:35;;;;;;;20.58;8.90;;;;;;;;;;5024962;28;20045;-64
2021/08/17 02:21:03;;;;;;;21.15;8.82;;;;;;;;;;5023696;28;20088;-65
2021/08/17 02:23:30;;;;;;;18.05;6.78;;;;;;;;;;5025308;28;20125;-64
2021/08/17 02:25:56;;;;;;;13.53;7.73;;;;;;;;;;5024557;28;20133;-65
2021/08/17 02:28:23;;;;;;;14.57;7.75;;;;;;;;;;5027065;28;20332;-65
2021/08/17 02:30:50;;;;;;;19.50;7.25;;;;;;;;;;5024005;28;20045;-64
2021/08/17 02:33:17;;;;;;;14.32;7.05;;;;;;;;;;5026931;28;20067;-64
2021/08/17 02:35:43;;;;;;;12.13;6.60;;;;;;;;;;5025269;28;20120;-64
2021/08/17 02:38:10;;;;;;;10.73;6.32;;;;;;;;;;5027284;28;20501;-63
2021/08/17 02:40:37;;;;;;;15.35;6.70;;;;;;;;;;5020178;28;20128;-64
2021/08/17 02:43:04;;;;;;;15.07;7.78;;;;;;;;;;5025243;28;20089;-63
2021/08/17 02:45:31;;;;;;;32.83;9.65;;;;;;;;;;5024259;28;20132;-63
2021/08/17 02:47:59;;;;;;;16.20;8.43;;;;;;;;;;5024904;28;20176;-63
2021/08/17 02:50:26;;;;;;;16.73;8.02;;;;;;;;;;5021896;28;20303;-63
2021/08/17 02:52:52;;;;;;;17.48;8.50;;;;;;;;;;5022218;28;20077;-63
2021/08/17 02:55:19;;;;;;;17.73;7.60;;;;;;;;;;5021750;28;20118;-64
2021/08/17 02:57:52;;;;;;;14.57;7.33;;;;;;;;;;5024530;28;20782;-64
2021/08/17 03:00:20;;;;;;;33.10;9.40;;;;;;;;;;5028766;28;20656;-64
2021/08/17 03:02:47;;;;;;;141.00;13.30;;;;;;;;;;5027708;28;20038;-64
2021/08/17 03:05:14;;;;;;;56.67;9.10;;;;;;;;;;5027392;28;20045;-64
2021/08/17 03:07:50;;;;;;;18.45;7.53;;;;;;;;;;5028865;28;20084;-64
2021/08/17 03:10:18;;;;;;;26.23;8.57;;;;;;;;;;5026220;28;20050;-64
2021/08/17 03:12:44;;;;;;;62.57;11.87;;;;;;;;;;5027265;28;20085;-64
2021/08/17 03:15:11;;;;;;;30.23;9.38;;;;;;;;;;5027818;28;20048;-64
2021/08/17 03:17:38;;;;;;;16.23;8.20;;;;;;;;;;5025794;28;20049;-64
2021/08/17 03:20:05;;;;;;;17.52;8.88;;;;;;;;;;5023921;28;20344;-63
2021/08/17 03:22:32;;;;;;;66.18;11.30;;;;;;;;;;5026007;28;20049;-63
2021/08/17 03:24:59;;;;;;;19.65;8.63;;;;;;;;;;5023980;28;20099;-64
2021/08/17 03:27:25;;;;;;;18.45;8.82;;;;;;;;;;5026569;28;20064;-64
2021/08/17 03:29:51;;;;;;;16.63;8.02;;;;;;;;;;5024492;28;20126;-64
2021/08/17 03:32:19;;;;;;;46.63;12.10;;;;;;;;;;5029741;28;20768;-64
2021/08/17 03:34:45;;;;;;;21.58;9.60;;;;;;;;;;5024952;28;20077;-64
2021/08/17 03:37:12;;;;;;;20.98;9.38;;;;;;;;;;5026297;28;20099;-64
2021/08/17 03:39:38;;;;;;;20.08;9.18;;;;;;;;;;5028196;28;20084;-64
2021/08/17 03:42:05;;;;;;;28.23;8.98;;;;;;;;;;5024700;28;20149;-64
2021/08/17 03:44:31;;;;;;;24.58;9.45;;;;;;;;;;5028440;28;20132;-64
2021/08/17 03:46:58;;;;;;;16.23;8.13;;;;;;;;;;5029045;28;20072;-64
2021/08/17 03:49:25;;;;;;;20.30;7.60;;;;;;;;;;5028512;28;20486;-64
2021/08/17 03:51:51;;;;;;;49.58;10.30;;;;;;;;;;5024744;28;20132;-64
2021/08/17 03:54:18;;;;;;;17.60;8.20;;;;;;;;;;5027542;28;20177;-64
2021/08/17 03:56:45;;;;;;;146.60;14.35;;;;;;;;;;5026628;28;20053;-64
2021/08/17 03:59:11;;;;;;;21.73;8.93;;;;;;;;;;5024309;28;20048;-64
2021/08/17 04:01:38;;;;;;;16.98;8.25;;;;;;;;;;5027475;28;20128;-64
2021/08/17 04:04:04;;;;;;;23.80;8.17;;;;;;;;;;5027226;28;20056;-63
2021/08/17 04:06:31;;;;;;;61.90;9.80;;;;;;;;;;5028386;28;20073;-64
2021/08/17 04:08:58;;;;;;;;;;;;;;;;;;5028063;28;20069;-64
2021/08/17 04:11:25;;;;;;;22.83;8.50;;;;;;;;;;5026795;28;20007;-64
2021/08/17 04:13:51;;;;;;;14.85;8.10;;;;;;;;;;5026469;28;20132;-64
2021/08/17 04:16:18;;;;;;;26.00;8.48;;;;;;;;;;5029228;28;20064;-64
2021/08/17 04:18:44;;;;;;;19.60;8.88;;;;;;;;;;5024030;28;20054;-63
2021/08/17 04:21:11;;;;;;;19.00;8.98;;;;;;;;;;5023835;28;20073;-64
2021/08/17 04:23:38;;;;;;;37.88;10.50;;;;;;;;;;5024353;28;20099;-63
2021/08/17 04:26:05;;;;;;;23.15;9.05;;;;;;;;;;5022580;28;20057;-64
2021/08/17 04:28:32;;;;;;;22.67;8.45;;;;;;;;;;5026347;28;20136;-64
2021/08/17 04:30:59;;;;;;;;;;;;;;;;;;5019255;28;20172;-63
2021/08/17 04:33:25;;;;;;;68.93;9.70;;;;;;;;;;5023833;28;19929;-64
2021/08/17 04:35:52;;;;;;;55.03;10.00;;;;;;;;;;5022270;28;20073;-63
2021/08/17 04:38:19;;;;;;;17.27;7.93;;;;;;;;;;5022325;28;20080;-64
2021/08/17 04:40:45;;;;;;;22.88;9.07;;;;;;;;;;5021134;28;20136;-63
2021/08/17 04:43:12;;;;;;;17.33;7.47;;;;;;;;;;5019970;28;20136;-64
2021/08/17 04:45:38;;;;;;;20.13;7.90;;;;;;;;;;5024385;28;20128;-64
2021/08/17 04:48:05;;;;;;;19.38;8.07;;;;;;;;;;5019946;28;20057;-63
2021/08/17 04:50:31;;;;;;;14.55;6.88;;;;;;;;;;5023599;28;20140;-64
2021/08/17 04:52:58;;;;;;;30.65;8.48;;;;;;;;;;5025999;28;20148;-64
2021/08/17 04:55:24;;;;;;;21.00;7.30;;;;;;;;;;5017947;28;20128;-64
2021/08/17 04:57:54;;;;;;;23.98;9.27;;;;;;;;;;5023146;28;20141;-64
2021/08/17 05:00:23;;;;;;;13.93;7.55;;;;;;;;;;5028887;28;20060;-64
2021/08/17 05:02:50;;;;;;;18.80;7.47;;;;;;;;;;5025877;28;20497;-63
2021/08/17 05:05:16;;;;;;;22.73;8.20;;;;;;;;;;5026112;28;20047;-64
2021/08/17 05:07:43;;;;;;;33.67;9.60;;;;;;;;;;5021020;28;20140;-64
2021/08/17 05:10:10;;;;;;;18.30;7.72;;;;;;;;;;5007399;28;20065;-64
2021/08/17 05:12:37;;;;;;;101.60;12.18;;;;;;;;;;5028409;28;20079;-64
2021/08/17 05:15:04;;;;;;;38.00;11.00;;;;;;;;;;5025618;28;20084;-63
2021/08/17 05:17:41;;;;;;;17.40;8.27;;;;;;;;;;5020216;28;20084;-64
2021/08/17 05:20:08;;;;;;;18.87;7.60;;;;;;;;;;5015082;28;20073;-63
2021/08/17 05:22:35;;;;;;;11.93;7.07;;;;;;;;;;5024930;28;20354;-63
2021/08/17 05:25:02;;;;;;;13.27;7.47;;;;;;;;;;5024587;28;20128;-63
2021/08/17 05:27:28;;;;;;;19.85;7.50;;;;;;;;;;5024273;28;20092;-63
2021/08/17 05:29:56;;;;;;;20.05;8.15;;;;;;;;;;5023698;28;20136;-63
2021/08/17 05:32:22;;;;;;;10.10;6.00;;;;;;;;;;5023016;28;20604;-63
2021/08/17 05:34:49;;;;;;;15.70;6.20;;;;;;;;;;5023140;28;20132;-64
2021/08/17 05:37:16;;;;;;;20.65;6.82;;;;;;;;;;5022011;28;20152;-63
2021/08/17 05:39:43;;;;;;;11.00;6.07;;;;;;;;;;5023660;28;20144;-63
2021/08/17 05:42:12;;;;;;;18.25;6.35;;;;;;;;;;5024974;28;20054;-63
2021/08/17 05:44:38;;;;;;;11.50;5.72;;;;;;;;;;5018908;28;20157;-63
2021/08/17 05:47:05;;;;;;;14.63;6.05;;;;;;;;;;5015767;28;20111;-63
2021/08/17 05:49:32;;;;;;;9.10;4.57;;;;;;;;;;5023992;28;20150;-63
2021/08/17 05:51:58;;;;;;;15.68;5.93;;;;;;;;;;5025388;28;20092;-63
2021/08/17 05:54:24;;;;;;;8.93;5.18;;;;;;;;;;5023747;28;20077;-63
2021/08/17 05:56:51;;;;;;;7.63;4.85;;;;;;;;;;5025561;28;20081;-64
2021/08/17 05:59:18;;;;;;;9.63;4.68;;;;;;;;;;5024405;28;20608;-64
2021/08/17 06:01:44;;;;;;;10.25;4.50;;;;;;;;;;5023948;28;20584;-64
2021/08/17 06:04:11;;;;;;;7.97;4.13;;;;;;;;;;5021973;28;20053;-64
2021/08/17 06:06:37;;;;;;;7.57;4.00;;;;;;;;;;5021428;28;20081;-63
2021/08/17 06:09:03;;;;;;;9.73;4.15;;;;;;;;;;5023497;28;20128;-64
2021/08/17 06:11:30;;;;;;;8.80;4.30;;;;;;;;;;5025530;28;20084;-64
2021/08/17 06:13:56;;;;;;;9.98;4.70;;;;;;;;;;5021292;28;20140;-63
2021/08/17 06:16:23;;;;;;;6.22;4.05;;;;;;;;;;5021026;28;20133;-64
2021/08/17 06:18:49;;;;;;;9.90;5.15;;;;;;;;;;5016158;28;20054;-64
2021/08/17 06:21:16;;;;;;;9.52;4.00;;;;;;;;;;5022296;28;20642;-64
2021/08/17 06:23:42;;;;;;;11.13;4.25;;;;;;;;;;5007318;28;20081;-64
2021/08/17 06:26:09;;;;;;;6.77;4.17;;;;;;;;;;5024292;28;20137;-64
2021/08/17 06:28:35;;;;;;;8.90;4.32;;;;;;;;;;5020512;28;20077;-64
2021/08/17 06:31:02;;;;;;;5.10;3.72;;;;;;;;;;5020862;28;20469;-64
2021/08/17 06:33:29;;;;;;;6.35;4.32;;;;;;;;;;5023770;28;20129;-64
2021/08/17 06:35:55;;;;;;;9.75;4.35;;;;;;;;;;5024839;28;20132;-63
2021/08/17 06:38:22;;;;;;;6.43;4.20;;;;;;;;;;5028668;28;20129;-64
2021/08/17 06:40:48;;;;;;;10.02;4.43;;;;;;;;;;5021167;28;20128;-64
2021/08/17 06:43:15;;;;;;;15.48;5.38;;;;;;;;;;5024467;28;20128;-64
2021/08/17 06:45:41;;;;;;;7.43;3.83;;;;;;;;;;5022505;28;20149;-63
2021/08/17 06:48:08;;;;;;;11.98;3.72;;;;;;;;;;5021608;28;20096;-64
2021/08/17 06:50:41;;;;;;;6.55;4.60;;;;;;;;;;5022866;28;20049;-63
2021/08/17 06:53:08;;;;;;;10.00;4.57;;;;;;;;;;5024165;28;20053;-63
2021/08/17 06:55:34;;;;;;;6.43;3.22;;;;;;;;;;5027370;28;20054;-63
2021/08/17 06:58:01;;;;;;;11.50;4.45;;;;;;;;;;5021873;28;20046;-64
2021/08/17 07:00:28;;;;;;;6.45;4.18;;;;;;;;;;5026147;28;20142;-64
2021/08/17 07:02:55;;;;;;;5.57;4.03;;;;;;;;;;5023088;28;20500;-64
2021/08/17 07:05:32;;;;;;;10.25;4.25;;;;;;;;;;5032684;28;20810;-63
2021/08/17 07:07:59;;;;;;;7.53;4.57;;;;;;;;;;5023466;28;20046;-64
2021/08/17 07:10:25;;;;;;;5.78;3.80;;;;;;;;;;5025665;28;20568;-64
2021/08/17 07:13:11;;;;;;;14.00;5.18;;;;;;;;;;5028639;28;20059;-64
2021/08/17 07:15:39;;;;;;;8.57;3.95;;;;;;;;;;5025698;28;20050;-64
2021/08/17 07:18:06;;;;;;;11.88;4.93;;;;;;;;;;5028895;28;20475;-64
2021/08/17 07:20:32;;;;;;;8.27;4.95;;;;;;;;;;5023887;28;20129;-64
2021/08/17 07:23:00;;;;;;;12.02;4.78;;;;;;;;;;5029211;28;20062;-64
2021/08/17 07:25:26;;;;;;;10.52;4.95;;;;;;;;;;5020655;28;20142;-64
2021/08/17 07:27:52;;;;;;;9.52;4.07;;;;;;;;;;5026443;28;20077;-64
2021/08/17 07:30:20;;;;;;;14.27;5.63;;;;;;;;;;5023927;28;20142;-64
2021/08/17 07:32:46;;;;;;;9.57;4.70;;;;;;;;;;5026385;28;20045;-64
2021/08/17 07:35:15;;;;;;;8.73;4.82;;;;;;;;;;5019994;28;20362;-64
2021/08/17 07:37:44;;;;;;;8.93;4.53;;;;;;;;;;5017852;28;20548;-63
2021/08/17 07:40:10;;;;;;;;;;;;;;;;;;5019892;28;20556;-65
2021/08/17 07:42:37;;;;;;;7.60;3.97;;;;;;;;;;5021186;28;19968;-64
2021/08/17 07:45:04;;;;;;;6.93;4.40;;;;;;;;;;5014574;28;20081;-63
2021/08/17 07:47:31;;;;;;;8.43;4.22;;;;;;;;;;5004932;28;20077;-63
2021/08/17 07:49:57;;;;;;;4.93;3.65;;;;;;;;;;5005957;28;20129;-63
2021/08/17 07:52:24;;;;;;;8.15;4.38;;;;;;;;;;5010077;28;20136;-64
2021/08/17 07:54:50;;;;;;;7.32;4.00;;;;;;;;;;5008977;28;20073;-64
2021/08/17 07:57:17;;;;;;;7.95;3.58;;;;;;;;;;5003580;28;20137;-63
2021/08/17 07:59:43;;;;;;;11.30;4.75;;;;;;;;;;5005715;28;20186;-64
2021/08/17 08:02:10;;;;;;;6.25;4.20;;;;;;;;;;5007064;28;20065;-63
2021/08/17 08:04:36;;;;;;;9.15;4.50;;;;;;;;;;5005243;28;20120;-64
2021/08/17 08:07:03;;;;;;;6.72;4.10;;;;;;;;;;5006343;28;20133;-63
2021/08/17 08:09:29;;;;;;;10.88;4.55;;;;;;;;;;5003609;28;20112;-64
2021/08/17 08:11:56;;;;;;;6.60;4.03;;;;;;;;;;4998634;28;20124;-64
2021/08/17 08:14:23;;;;;;;7.13;3.87;;;;;;;;;;5000045;28;20058;-64
2021/08/17 08:16:49;;;;;;;9.32;4.03;;;;;;;;;;4997652;28;20344;-64
2021/08/17 08:19:16;;;;;;;11.90;4.05;;;;;;;;;;5002174;28;20060;-64
2021/08/17 08:21:42;;;;;;;11.07;4.60;;;;;;;;;;5006532;28;20069;-64
2021/08/17 08:24:09;;;;;;;10.70;4.38;;;;;;;;;;5001408;28;20100;-64
2021/08/17 08:26:35;;;;;;;13.40;4.47;;;;;;;;;;5000586;28;20566;-63
2021/08/17 08:29:02;;;;;;;5.82;3.80;;;;;;;;;;5002842;28;20129;-64
2021/08/17 08:31:29;;;;;;;8.35;4.28;;;;;;;;;;4999979;28;20046;-64
2021/08/17 08:33:55;;;;;;;7.87;4.50;;;;;;;;;;5007740;28;20042;-63
2021/08/17 08:36:22;;;;;;;8.35;4.65;;;;;;;;;;5005519;28;20381;-64
2021/08/17 08:38:49;;;;;;;9.82;3.95;;;;;;;;;;5001610;28;20054;-64
2021/08/17 08:41:18;;;;;;;7.05;4.57;;;;;;;;;;5000389;28;20133;-64
2021/08/17 08:43:44;;;;;;;11.82;4.95;;;;;;;;;;5004332;28;20120;-64
2021/08/17 08:46:18;;;;;;;6.57;4.05;;;;;;;;;;5021282;28;20104;-64
2021/08/17 08:48:45;;;;;;;12.23;4.75;;;;;;;;;;5021091;28;20107;-64
2021/08/17 08:51:13;;;;;;;12.52;4.97;;;;;;;;;;5023902;28;20068;-64
2021/08/17 08:53:40;;;;;;;9.23;4.63;;;;;;;;;;5021182;28;20045;-64
2021/08/17 08:56:08;;;;;;;11.60;4.75;;;;;;;;;;5018512;28;20165;-64
2021/08/17 08:58:34;;;;;;;15.07;5.93;;;;;;;;;;5019265;28;20149;-64
2021/08/17 09:01:01;;;;;;;18.90;6.05;;;;;;;;;;5019506;28;20132;-64
2021/08/17 09:03:44;;;;;;;9.35;4.88;;;;;;;;;;5025157;28;20119;-63
2021/08/17 09:06:27;;;;;;;9.05;4.53;;;;;;;;;;5021640;28;20077;-63
2021/08/17 09:09:02;;;;;;;9.65;4.45;;;;;;;;;;5020703;28;20069;-64
2021/08/17 09:11:30;;;;;;;18.52;5.57;;;;;;;;;;5028815;28;20156;-63
2021/08/17 09:14:13;;;;;;;6.90;4.90;;;;;;;;;;5027756;28;20144;-64
2021/08/17 09:16:40;;;;;;;14.55;4.95;;;;;;;;;;5019464;28;20084;-64
2021/08/17 09:19:21;;;;;;;6.97;4.37;;;;;;;;;;5021791;28;20516;-64
2021/08/17 09:21:48;;;;;;;5.20;4.15;;;;;;;;;;5023936;28;20069;-65
2021/08/17 09:24:18;;;;;;;5.93;4.07;;;;;;;;;;5026072;28;20088;-64
2021/08/17 09:26:49;;;;;;;5.80;3.30;;;;;;;;;;5021462;28;20581;-64
2021/08/17 09:29:24;;;;;;;5.32;3.58;;;;;;;;;;5016906;28;20128;-64
2021/08/17 09:31:52;;;;;;;9.20;4.13;;;;;;;;;;5024362;28;20140;-64
2021/08/17 09:34:19;;;;;;;6.55;4.00;;;;;;;;;;5020285;28;20527;-64
2021/08/17 09:36:46;;;;;;;6.55;3.72;;;;;;;;;;5025498;28;20048;-63
2021/08/17 09:39:29;;;;;;;7.75;3.38;;;;;;;;;;5021744;28;20148;-63
2021/08/17 09:42:10;;;;;;;5.20;3.63;;;;;;;;;;5022127;28;20042;-63
2021/08/17 09:44:38;;;;;;;6.65;3.45;;;;;;;;;;5021552;28;20053;-63
2021/08/17 09:47:06;;;;;;;8.73;3.70;;;;;;;;;;5017941;28;20073;-63
2021/08/17 09:49:32;;;;;;;5.65;3.30;;;;;;;;;;5020479;28;20136;-64
2021/08/17 09:52:06;;;;;;;5.43;3.30;;;;;;;;;;5020897;28;20132;-64
2021/08/17 09:54:36;;;;;;;7.55;3.70;;;;;;;;;;5026023;28;20128;-63
2021/08/17 09:57:03;;;;;;;5.20;3.03;;;;;;;;;;5025155;28;20121;-64
2021/08/17 09:59:30;;;;;;;;;;;;;;;;;;5017266;28;20478;-64
2021/08/17 10:01:57;;;;;;;5.25;3.00;;;;;;;;;;5019873;28;19968;-64
2021/08/17 10:04:24;;;;;;;3.85;2.58;;;;;;;;;;5026334;28;20051;-64
2021/08/17 10:06:51;;;;;;;6.20;2.88;;;;;;;;;;5022990;28;20129;-64
2021/08/17 10:09:18;;;;;;;6.25;3.28;;;;;;;;;;5022419;28;20137;-63
2021/08/17 10:11:45;;;;;;;7.20;3.25;;;;;;;;;;5025012;28;20513;-63
2021/08/17 10:14:12;;;;;;;7.68;3.30;;;;;;;;;;5026517;28;20072;-64
2021/08/17 10:16:41;;;;;;;7.10;3.10;;;;;;;;;;5025738;28;20466;-63
2021/08/17 10:19:08;;;;;;;5.78;3.28;;;;;;;;;;5029402;28;20103;-63
2021/08/17 10:21:35;;;;;;;6.28;3.28;;;;;;;;;;5031559;28;20141;-63
2021/08/17 10:24:20;;;;;;;5.25;3.00;;;;;;;;;;5035537;28;20089;-63
2021/08/17 10:26:47;;;;;;;10.38;2.85;;;;;;;;;;5026828;28;20045;-63
2021/08/17 10:29:29;;;;;;;4.13;2.55;;;;;;;;;;5023263;28;20561;-63
2021/08/17 10:31:56;;;;;;;4.03;2.60;;;;;;;;;;5026767;28;20076;-63
2021/08/17 10:34:35;;;;;;;3.08;2.60;;;;;;;;;;5024237;28;20141;-63
2021/08/17 10:37:20;;;;;;;4.50;2.60;;;;;;;;;;5027157;28;20132;-63
2021/08/17 10:39:47;;;;;;;3.85;2.42;;;;;;;;;;5029475;28;20144;-63
2021/08/17 10:42:26;;;;;;;3.63;2.50;;;;;;;;;;5024561;28;20124;-63
2021/08/17 10:44:53;;;;;;;5.43;2.45;;;;;;;;;;5024708;28;20145;-63
2021/08/17 10:47:33;;;;;;;3.40;2.60;;;;;;;;;;5026095;28;20576;-63
2021/08/17 10:50:01;;;;;;;2.30;1.80;;;;;;;;;;5025565;28;20067;-63
2021/08/17 10:52:35;;;;;;;4.87;2.60;;;;;;;;;;5023430;28;20172;-63
2021/08/17 10:55:23;;;;;;;6.30;2.33;;;;;;;;;;5026536;28;20769;-63
2021/08/17 10:57:51;;;;;;;4.43;2.08;;;;;;;;;;5024330;28;20068;-63
2021/08/17 11:00:37;;;;;;;3.70;2.45;;;;;;;;;;5026794;28;20045;-63
2021/08/17 11:03:04;;;;;;;4.70;2.08;;;;;;;;;;5018838;28;20128;-63
2021/08/17 11:05:50;;;;;;;3.28;2.47;;;;;;;;;;5027961;28;20421;-63
2021/08/17 11:08:32;;;;;;;7.25;2.58;;;;;;;;;;5023868;28;20128;-63
2021/08/17 11:10:59;;;;;;;4.35;2.47;;;;;;;;;;5025490;28;20082;-63
2021/08/17 11:13:26;;;;;;;2.27;1.90;;;;;;;;;;5025207;28;20128;-63
2021/08/17 11:16:09;;;;;;;3.63;2.28;;;;;;;;;;5022925;28;20050;-63
2021/08/17 11:18:52;;;;;;;3.95;2.10;;;;;;;;;;5025415;28;20053;-63
2021/08/17 11:21:37;;;;;;;4.40;2.10;;;;;;;;;;5022100;28;20128;-63
2021/08/17 11:24:07;;;;;;;3.30;2.13;;;;;;;;;;5025105;28;20136;-63
2021/08/17 11:26:34;;;;;;;5.25;2.20;;;;;;;;;;5019901;28;20073;-62
2021/08/17 11:29:00;;;;;;;3.63;2.50;;;;;;;;;;5023555;28;20088;-63
2021/08/17 11:31:27;;;;;;;3.33;2.20;;;;;;;;;;5028532;28;20164;-63
2021/08/17 11:34:12;;;;;;;3.92;2.15;;;;;;;;;;5023345;28;20050;-63
2021/08/17 11:36:39;;;;;;;3.17;2.30;;;;;;;;;;5020430;28;20041;-63
2021/08/17 11:39:18;;;;;;;2.95;2.15;;;;;;;;;;5023371;28;20642;-63
2021/08/17 11:41:46;;;;;;;7.03;2.17;;;;;;;;;;5025178;28;20160;-63
2021/08/17 11:44:13;;;;;;;3.33;2.15;;;;;;;;;;5024178;28;20179;-63
2021/08/17 11:46:39;;;;;;;3.85;2.00;;;;;;;;;;5028335;28;20136;-63
2021/08/17 11:49:23;;;;;;;3.47;2.15;;;;;;;;;;5021510;28;20080;-63
2021/08/17 11:51:58;;;;;;;3.45;1.67;;;;;;;;;;5024103;28;20056;-63
2021/08/17 11:54:25;;;;;;;3.08;2.03;;;;;;;;;;5019868;28;20053;-63
2021/08/17 11:57:09;;;;;;;3.53;1.90;;;;;;;;;;5023985;28;20585;-63
2021/08/17 11:59:43;;;;;;;3.50;2.10;;;;;;;;;;5020514;28;20158;-63
2021/08/17 12:02:16;;;;;;;3.65;2.58;;;;;;;;;;5030905;28;20079;-63
2021/08/17 12:04:57;;;;;;;2.60;1.90;;;;;;;;;;5024777;28;20458;-63
2021/08/17 12:07:24;;;;;;;5.20;2.20;;;;;;;;;;5022010;28;20087;-64
2021/08/17 12:09:52;;;;;;;2.78;2.00;;;;;;;;;;5028002;28;20136;-63
2021/08/17 12:12:20;;;;;;;5.03;2.10;;;;;;;;;;5022116;28;20108;-63
2021/08/17 12:15:06;;;;;;;3.75;2.20;;;;;;;;;;5028298;28;20137;-64
2021/08/17 12:17:32;;;;;;;2.20;2.00;;;;;;;;;;5025325;28;20141;-63
2021/08/17 12:20:03;;;;;;;5.80;2.50;;;;;;;;;;5022312;28;20076;-63
2021/08/17 12:22:32;;;;;;;3.72;2.30;;;;;;;;;;5023439;28;20065;-64
2021/08/17 12:24:58;;;;;;;4.10;2.03;;;;;;;;;;5027468;28;20099;-64
2021/08/17 12:27:26;;;;;;;5.32;2.28;;;;;;;;;;5020589;28;20133;-63
2021/08/17 12:29:53;;;;;;;3.80;2.22;;;;;;;;;;5025800;28;20149;-64
2021/08/17 12:32:25;;;;;;;4.32;2.20;;;;;;;;;;5021405;28;20075;-64
2021/08/17 12:34:51;;;;;;;5.18;2.20;;;;;;;;;;5024859;28;20406;-64
2021/08/17 12:37:32;;;;;;;4.43;2.50;;;;;;;;;;5024203;28;20050;-64
2021/08/17 12:39:59;;;;;;;3.88;1.85;;;;;;;;;;5018920;28;20143;-64
2021/08/17 12:42:26;;;;;;;4.18;2.10;;;;;;;;;;5022601;28;20076;-64
2021/08/17 12:44:53;;;;;;;5.30;2.33;;;;;;;;;;5021967;28;20137;-63
2021/08/17 12:47:23;;;;;;;5.20;2.28;;;;;;;;;;5023415;28;20045;-64
2021/08/17 12:50:00;;;;;;;5.65;2.17;;;;;;;;;;5022344;28;20536;-63
2021/08/17 12:52:32;;;;;;;3.53;2.25;;;;;;;;;;5023264;28;20085;-63
2021/08/17 12:54:58;;;;;;;2.30;2.10;;;;;;;;;;5026154;28;20072;-64
2021/08/17 12:57:26;;;;;;;7.78;2.30;;;;;;;;;;5019293;28;20161;-64
2021/08/17 12:59:54;;;;;;;5.65;2.10;;;;;;;;;;5021708;28;20077;-63
2021/08/17 13:02:20;;;;;;;2.40;1.92;;;;;;;;;;5023239;28;20046;-64
2021/08/17 13:04:50;;;;;;;4.80;1.92;;;;;;;;;;5023898;28;20644;-63
2021/08/17 13:07:17;;;;;;;3.47;1.90;;;;;;;;;;5024216;28;20077;-63
2021/08/17 13:09:43;;;;;;;4.85;2.33;;;;;;;;;;5020480;28;20084;-63
2021/08/17 13:12:10;;;;;;;2.50;2.13;;;;;;;;;;5019228;28;20137;-63
2021/08/17 13:14:37;;;;;;;3.92;2.30;;;;;;;;;;5020883;28;20474;-63
2021/08/17 13:17:05;;;;;;;9.05;2.40;;;;;;;;;;5024163;28;20050;-64
2021/08/17 13:19:32;;;;;;;3.20;1.77;;;;;;;;;;5021882;28;20137;-63
2021/08/17 13:22:00;;;;;;;3.17;1.88;;;;;;;;;;5021374;28;20136;-63
2021/08/17 13:24:30;;;;;;;4.20;1.70;;;;;;;;;;5023004;28;20543;-64
2021/08/17 13:27:01;;;;;;;3.47;2.03;;;;;;;;;;5018679;28;20058;-63
2021/08/17 13:29:27;;;;;;;5.68;2.08;;;;;;;;;;5021215;28;20129;-63
2021/08/17 13:31:54;;;;;;;2.67;2.03;;;;;;;;;;5022783;28;20116;-63
2021/08/17 13:34:22;;;;;;;2.85;1.83;;;;;;;;;;5023585;28;20115;-63
2021/08/17 13:36:49;;;;;;;4.95;2.20;;;;;;;;;;5021970;28;20140;-63
2021/08/17 13:39:16;;;;;;;3.50;2.10;;;;;;;;;;5023357;28;20600;-63
2021/08/17 13:41:42;;;;;;;7.55;2.10;;;;;;;;;;5018668;28;20130;-63
2021/08/17 13:44:10;;;;;;;2.83;1.77;;;;;;;;;;5019045;28;20072;-64
2021/08/17 13:46:37;;;;;;;4.40;2.15;;;;;;;;;;5020640;28;20186;-64
2021/08/17 13:49:03;;;;;;;1.83;1.65;;;;;;;;;;5019975;28;20073;-64
2021/08/17 13:51:30;;;;;;;3.33;1.90;;;;;;;;;;5024551;28;20133;-64
2021/08/17 13:53:56;;;;;;;3.33;2.28;;;;;;;;;;5025593;28;20125;-64
2021/08/17 13:56:23;;;;;;;4.88;1.90;;;;;;;;;;5027274;28;20092;-63
2021/08/17 13:58:51;;;;;;;4.05;1.98;;;;;;;;;;5019438;28;20076;-63
2021/08/17 14:01:17;;;;;;;1.83;1.73;;;;;;;;;;5018799;28;20084;-63
2021/08/17 14:03:45;;;;;;;3.95;2.20;;;;;;;;;;5020574;28;20314;-64
2021/08/17 14:06:12;;;;;;;;;;;;;;;;;;5023077;28;20084;-63
2021/08/17 14:08:40;;;;;;;4.65;1.60;;;;;;;;;;5021114;28;20333;-63
2021/08/17 14:11:06;;;;;;;2.65;1.80;;;;;;;;;;5024604;28;20128;-63
2021/08/17 14:13:33;;;;;;;2.53;1.80;;;;;;;;;;5014873;28;20077;-64
2021/08/17 14:16:03;;;;;;;2.93;1.80;;;;;;;;;;5016553;28;20498;-63
2021/08/17 14:18:30;;;;;;;5.45;1.77;;;;;;;;;;5021731;28;20097;-63
2021/08/17 14:21:00;;;;;;;2.05;1.48;;;;;;;;;;5020894;28;20140;-64
2021/08/17 14:23:27;;;;;;;3.40;1.90;;;;;;;;;;5017790;28;20077;-64
2021/08/17 14:26:00;;;;;;;4.38;1.70;;;;;;;;;;5021169;28;20069;-64
2021/08/17 14:28:27;;;;;;;1.80;1.30;;;;;;;;;;5022308;28;20092;-64
2021/08/17 14:30:54;;;;;;;4.53;1.85;;;;;;;;;;5020657;28;20467;-63
2021/08/17 14:33:20;;;;;;;1.45;1.20;;;;;;;;;;5015081;28;20488;-63
2021/08/17 14:35:47;;;;;;;2.28;1.25;;;;;;;;;;5022017;28;20129;-63
2021/08/17 14:38:14;;;;;;;2.20;1.50;;;;;;;;;;5024072;28;20092;-63
2021/08/17 14:40:41;;;;;;;4.53;1.63;;;;;;;;;;5023191;28;20471;-63
2021/08/17 14:43:08;;;;;;;1.98;1.25;;;;;;;;;;5018444;28;20134;-64